Time;durP1;ratioP1;P1;durP2;ratioP2;P2;SDS_P1;SDS_P2;PMS_P1;PMS_P2;Temp;Humidity;BMP_temperature;BMP_pressure;BME280_temperature;BME280_humidity;BME280_pressure;Samples;Min_cycle;Max_cycle;Signal;HPM_P1;HPM_P2
2023/06/22 00:01:22;;;;;;;7.13;4.20;;;23.20;99.90;;;;;;4857242;29;20876;-77
2023/06/22 00:03:50;;;;;;;8.20;4.57;;;23.10;99.90;;;;;;4866671;29;20098;-77
2023/06/22 00:06:17;;;;;;;6.07;3.60;;;23.10;99.90;;;;;;4864682;29;20393;-77
2023/06/22 00:08:44;;;;;;;6.65;3.78;;;23.30;99.90;;;;;;4855099;29;20131;-77
2023/06/22 00:11:12;;;;;;;8.63;4.00;;;23.40;99.90;;;;;;4850973;29;20140;-77
2023/06/22 00:13:39;;;;;;;10.18;4.38;;;23.40;99.90;;;;;;4866867;29;20071;-77
2023/06/22 00:16:06;;;;;;;8.25;4.20;;;23.40;99.90;;;;;;4863680;29;20999;-77
2023/06/22 00:18:33;;;;;;;11.68;3.50;;;23.30;99.90;;;;;;4867140;29;20728;-77
2023/06/22 00:21:01;;;;;;;6.68;3.38;;;23.40;99.90;;;;;;4882302;29;20040;-77
2023/06/22 00:23:28;;;;;;;7.93;3.63;;;23.40;99.90;;;;;;4837238;29;20200;-77
2023/06/22 00:25:55;;;;;;;14.20;4.70;;;23.40;99.90;;;;;;4864232;29;20052;-77
2023/06/22 00:28:22;;;;;;;9.32;4.22;;;23.50;99.90;;;;;;4836990;29;20172;-77
2023/06/22 00:30:49;;;;;;;7.43;4.25;;;23.40;99.90;;;;;;4862555;29;20048;-77
2023/06/22 00:33:18;;;;;;;7.38;3.97;;;23.30;99.90;;;;;;4848428;29;20067;-77
2023/06/22 00:35:45;;;;;;;10.20;4.70;;;23.40;99.90;;;;;;4851462;29;20044;-77
2023/06/22 00:38:12;;;;;;;11.10;4.97;;;23.40;99.90;;;;;;4866369;29;20056;-77
2023/06/22 00:40:41;;;;;;;10.00;4.70;;;23.40;99.90;;;;;;4862944;29;20044;-77
2023/06/22 00:43:08;;;;;;;8.50;4.00;;;23.20;99.90;;;;;;4869573;29;20040;-77
2023/06/22 00:45:35;;;;;;;7.63;4.72;;;23.20;99.90;;;;;;4855116;29;23068;-77
2023/06/22 00:48:03;;;;;;;12.75;4.90;;;23.30;99.90;;;;;;4849756;29;20740;-77
2023/06/22 00:50:35;;;;;;;6.13;3.63;;;23.20;99.90;;;;;;4855823;29;20057;-77
2023/06/22 00:53:11;;;;;;;10.63;3.65;;;23.20;99.90;;;;;;4864495;29;20115;-77
2023/06/22 00:55:51;;;;;;;9.35;4.70;;;23.30;99.90;;;;;;4835142;29;20060;-77
2023/06/22 00:58:21;;;;;;;7.85;4.15;;;23.30;99.90;;;;;;4855646;29;20084;-77
2023/06/22 01:00:49;;;;;;;11.13;4.55;;;23.20;99.90;;;;;;4854797;29;20055;-77
2023/06/22 01:03:16;;;;;;;10.82;4.85;;;23.20;99.90;;;;;;4865659;29;20076;-77
2023/06/22 01:05:46;;;;;;;6.70;4.05;;;23.20;99.90;;;;;;4854406;29;20048;-77
2023/06/22 01:08:37;;;;;;;10.65;4.60;;;23.20;99.90;;;;;;4872456;29;20051;-77
2023/06/22 01:11:38;;;;;;;8.95;4.43;;;23.20;99.90;;;;;;4864420;29;20045;-77
2023/06/22 01:14:18;;;;;;;13.23;5.10;;;23.20;99.90;;;;;;4861053;29;20057;-77
2023/06/22 01:16:47;;;;;;;14.02;4.93;;;23.20;99.90;;;;;;4850291;29;20055;-77
2023/06/22 01:19:30;;;;;;;9.65;4.72;;;23.20;99.90;;;;;;4836761;29;20056;-77
2023/06/22 01:21:58;;;;;;;6.85;4.20;;;23.10;99.90;;;;;;4858047;29;20420;-77
2023/06/22 01:24:54;;;;;;;7.03;3.80;;;23.20;99.90;;;;;;4856412;29;20048;-77
2023/06/22 01:28:16;;;;;;;9.20;4.38;;;23.10;99.90;;;;;;4846998;29;20059;-77
2023/06/22 01:30:46;;;;;;;9.88;4.22;;;23.10;99.90;;;;;;4819509;29;20057;-77
2023/06/22 01:33:13;;;;;;;14.02;4.82;;;23.10;99.90;;;;;;4862797;29;20048;-77
2023/06/22 01:35:41;;;;;;;14.57;5.40;;;23.20;99.90;;;;;;4854095;29;20524;-77
2023/06/22 01:38:09;;;;;;;7.28;4.03;;;23.20;99.90;;;;;;4847070;29;20058;-77
2023/06/22 01:40:37;;;;;;;9.50;4.50;;;23.10;99.90;;;;;;4859062;29;20040;-77
2023/06/22 01:43:05;;;;;;;10.68;4.82;;;23.10;99.90;;;;;;4855764;29;20060;-77
2023/06/22 01:45:35;;;;;;;18.88;6.03;;;23.20;99.90;;;;;;4852888;29;20060;-77
2023/06/22 01:48:02;;;;;;;13.60;5.93;;;23.10;99.90;;;;;;4870593;29;22481;-77
2023/06/22 01:50:30;;;;;;;10.27;5.25;;;23.10;99.90;;;;;;4855113;29;20044;-77
2023/06/22 01:52:58;;;;;;;11.75;4.82;;;23.10;99.90;;;;;;4855851;29;20462;-77
2023/06/22 01:55:25;;;;;;;6.97;4.28;;;23.10;99.90;;;;;;4842505;29;20072;-77
2023/06/22 01:57:53;;;;;;;11.15;4.78;;;23.10;99.90;;;;;;4857864;29;20844;-77
2023/06/22 02:00:23;;;;;;;9.10;4.22;;;23.00;99.90;;;;;;4864625;29;20040;-77
2023/06/22 02:03:22;;;;;;;11.57;4.53;;;23.00;99.90;;;;;;4858281;29;20049;-77
2023/06/22 02:06:01;;;;;;;12.05;5.00;;;23.00;99.90;;;;;;4818495;29;20111;-77
2023/06/22 02:08:38;;;;;;;10.25;5.20;;;23.00;99.90;;;;;;4850527;29;20048;-77
2023/06/22 02:11:10;;;;;;;12.50;5.55;;;23.00;99.90;;;;;;4853058;29;22672;-76
2023/06/22 02:13:42;;;;;;;9.25;4.60;;;22.80;99.90;;;;;;4861521;29;20560;-76
2023/06/22 02:16:11;;;;;;;10.02;4.85;;;22.90;99.90;;;;;;4859651;29;20539;-77
2023/06/22 02:18:46;;;;;;;8.30;4.80;;;22.90;99.90;;;;;;4864709;29;20060;-77
2023/06/22 02:21:14;;;;;;;7.85;4.05;;;22.90;99.90;;;;;;4857580;29;20049;-77
2023/06/22 02:23:41;;;;;;;10.27;5.32;;;22.90;99.90;;;;;;4875560;29;20040;-77
2023/06/22 02:26:08;;;;;;;9.77;5.00;;;22.90;99.90;;;;;;4854951;29;20420;-76
2023/06/22 02:28:36;;;;;;;9.82;4.65;;;22.90;99.90;;;;;;4849362;29;20131;-77
2023/06/22 02:31:03;;;;;;;8.70;4.85;;;22.80;99.90;;;;;;4854551;29;20858;-77
2023/06/22 02:33:30;;;;;;;12.00;4.75;;;22.90;99.90;;;;;;4863339;29;20665;-77
2023/06/22 02:35:57;;;;;;;10.45;5.50;;;22.90;99.90;;;;;;4853549;29;20056;-77
2023/06/22 02:38:24;;;;;;;8.73;5.05;;;22.80;99.90;;;;;;4854645;29;20086;-77
2023/06/22 02:40:52;;;;;;;7.78;4.57;;;22.70;99.90;;;;;;4864808;29;20076;-77
2023/06/22 02:43:19;;;;;;;10.55;3.92;;;22.60;99.90;;;;;;4855307;29;20525;-77
2023/06/22 02:45:46;;;;;;;8.77;4.40;;;22.80;99.90;;;;;;4848992;29;20036;-77
2023/06/22 02:48:13;;;;;;;9.60;4.95;;;22.80;99.90;;;;;;4837059;29;20068;-77
2023/06/22 02:50:41;;;;;;;8.88;4.40;;;22.80;99.90;;;;;;4849506;29;20199;-77
2023/06/22 02:53:08;;;;;;;8.60;4.72;;;22.70;99.90;;;;;;4854718;29;20380;-77
2023/06/22 02:55:39;;;;;;;12.10;5.15;;;22.80;99.90;;;;;;4855882;29;20301;-77
2023/06/22 02:58:08;;;;;;;7.88;4.20;;;22.80;99.90;;;;;;4849970;29;20227;-77
2023/06/22 03:00:39;;;;;;;10.45;4.85;;;22.80;99.90;;;;;;4860001;29;20389;-76
2023/06/22 03:03:06;;;;;;;10.85;5.47;;;22.70;99.90;;;;;;4849647;29;20196;-77
2023/06/22 03:05:35;;;;;;;13.13;5.53;;;22.70;99.90;;;;;;4841020;29;22355;-77
2023/06/22 03:08:02;;;;;;;12.38;4.90;;;22.70;99.90;;;;;;4855810;29;20545;-77
2023/06/22 03:10:34;;;;;;;7.90;3.78;;;22.80;99.90;;;;;;4845579;29;21209;-77
2023/06/22 03:13:01;;;;;;;9.40;4.55;;;22.80;99.90;;;;;;4847559;29;23000;-77
2023/06/22 03:15:29;;;;;;;8.40;4.32;;;22.70;99.90;;;;;;4861073;29;20631;-77
2023/06/22 03:17:56;;;;;;;10.95;4.75;;;22.80;99.90;;;;;;4832916;29;20151;-77
2023/06/22 03:20:26;;;;;;;8.68;4.60;;;22.70;99.90;;;;;;4856512;29;20047;-77
2023/06/22 03:22:54;;;;;;;11.10;5.25;;;22.70;99.90;;;;;;4871180;29;20052;-77
2023/06/22 03:25:22;;;;;;;10.15;4.55;;;22.70;99.90;;;;;;4851387;29;20043;-77
2023/06/22 03:27:50;;;;;;;18.40;5.90;;;22.70;99.90;;;;;;4854488;29;20153;-77
2023/06/22 03:30:17;;;;;;;11.85;5.50;;;22.70;99.90;;;;;;4854213;29;20051;-77
2023/06/22 03:32:46;;;;;;;9.13;5.00;;;22.50;99.90;;;;;;4875105;29;20665;-77
2023/06/22 03:35:14;;;;;;;10.32;4.85;;;22.70;99.90;;;;;;4859885;29;20063;-77
2023/06/22 03:37:41;;;;;;;12.60;5.18;;;22.60;99.90;;;;;;4851833;29;20190;-77
2023/06/22 03:40:09;;;;;;;9.15;5.30;;;22.70;99.90;;;;;;4852300;29;20056;-77
2023/06/22 03:42:36;;;;;;;10.25;4.90;;;22.70;99.90;;;;;;4854808;29;20307;-77
2023/06/22 03:45:04;;;;;;;5.82;3.90;;;22.70;99.90;;;;;;4862655;29;20127;-77
2023/06/22 03:47:31;;;;;;;11.73;5.40;;;22.70;99.90;;;;;;4863319;29;22320;-77
2023/06/22 03:49:59;;;;;;;8.73;4.88;;;22.80;99.90;;;;;;4851760;29;22490;-77
2023/06/22 03:52:26;;;;;;;10.80;5.57;;;22.80;99.90;;;;;;4858839;29;20120;-76
2023/06/22 03:54:53;;;;;;;11.70;5.25;;;22.80;99.90;;;;;;4901388;29;20084;-77
2023/06/22 03:57:20;;;;;;;10.18;4.68;;;22.80;99.90;;;;;;4892118;29;20468;-76
2023/06/22 03:59:48;;;;;;;9.43;5.00;;;22.80;99.90;;;;;;4853966;29;20052;-76
2023/06/22 04:02:15;;;;;;;9.32;5.05;;;22.80;99.90;;;;;;4862721;29;20055;-77
2023/06/22 04:04:42;;;;;;;8.23;4.47;;;22.80;99.90;;;;;;4850564;29;20068;-77
2023/06/22 04:07:10;;;;;;;7.63;5.15;;;22.90;99.90;;;;;;4850015;29;22429;-77
2023/06/22 04:09:37;;;;;;;8.45;4.40;;;22.90;99.90;;;;;;4867321;29;20057;-77
2023/06/22 04:12:04;;;;;;;15.90;5.88;;;22.90;99.90;;;;;;4857101;29;20079;-76
2023/06/22 04:14:31;;;;;;;11.88;5.55;;;22.90;99.90;;;;;;4835268;29;20528;-77
2023/06/22 04:16:58;;;;;;;11.63;5.22;;;22.90;99.90;;;;;;4856392;29;20051;-77
2023/06/22 04:19:26;;;;;;;10.13;5.05;;;23.00;99.90;;;;;;4862472;29;23161;-77
2023/06/22 04:21:53;;;;;;;8.75;4.60;;;23.00;99.90;;;;;;4861123;29;20047;-77
2023/06/22 04:24:20;;;;;;;10.82;5.50;;;23.00;99.90;;;;;;4859937;29;20127;-77
2023/06/22 04:26:47;;;;;;;10.15;5.38;;;23.10;99.90;;;;;;4858925;29;20045;-77
2023/06/22 04:29:14;;;;;;;9.93;5.15;;;23.10;99.90;;;;;;4861133;29;20182;-77
2023/06/22 04:31:41;;;;;;;10.82;5.72;;;23.10;99.90;;;;;;4852214;29;20794;-77
2023/06/22 04:34:09;;;;;;;11.73;5.43;;;23.20;99.90;;;;;;4865448;29;20564;-77
2023/06/22 04:36:39;;;;;;;12.07;5.95;;;23.20;99.90;;;;;;4831415;29;20725;-76
2023/06/22 04:39:10;;;;;;;10.82;5.28;;;23.20;99.90;;;;;;4865409;29;20583;-77
2023/06/22 04:41:41;;;;;;;9.93;4.72;;;23.20;99.90;;;;;;4838971;29;20198;-77
2023/06/22 04:44:25;;;;;;;18.25;7.47;;;23.30;99.90;;;;;;4835850;29;23495;-77
2023/06/22 04:47:03;;;;;;;12.10;5.32;;;23.30;99.90;;;;;;4860692;29;20043;-77
2023/06/22 04:49:35;;;;;;;15.35;5.47;;;23.40;99.90;;;;;;4860638;29;20534;-77
2023/06/22 04:52:04;;;;;;;;;;;23.40;99.90;;;;;;4859025;29;20139;-77
2023/06/22 04:54:35;;;;;;;13.23;5.57;;;23.40;99.90;;;;;;4859679;29;20042;-77
2023/06/22 04:57:09;;;;;;;10.80;5.78;;;23.40;99.90;;;;;;4844966;29;20934;-77
2023/06/22 04:59:41;;;;;;;10.48;4.95;;;23.40;99.90;;;;;;4846237;29;20716;-77
2023/06/22 05:02:17;;;;;;;9.45;5.30;;;23.40;99.90;;;;;;4844577;29;20111;-77
2023/06/22 05:04:44;;;;;;;12.18;5.60;;;23.40;99.90;;;;;;4856822;29;21911;-77
2023/06/22 05:07:12;;;;;;;11.63;6.10;;;23.50;99.90;;;;;;4875964;29;20066;-77
2023/06/22 05:09:39;;;;;;;12.50;5.97;;;23.60;99.90;;;;;;4866806;29;22358;-78
2023/06/22 05:12:07;;;;;;;10.90;5.18;;;23.70;99.90;;;;;;4856129;29;20088;-78
2023/06/22 05:14:37;;;;;;;13.18;5.95;;;23.80;99.90;;;;;;4861634;29;20095;-78
2023/06/22 05:17:13;;;;;;;8.15;4.60;;;23.80;99.90;;;;;;4846702;29;20091;-78
2023/06/22 05:19:47;;;;;;;12.45;5.65;;;23.90;99.90;;;;;;4860139;29;20086;-78
2023/06/22 05:22:15;;;;;;;14.23;5.95;;;23.90;99.90;;;;;;4851403;29;22277;-78
2023/06/22 05:24:43;;;;;;;10.55;5.35;;;23.90;99.90;;;;;;4862671;29;20052;-78
2023/06/22 05:27:10;;;;;;;9.90;4.68;;;24.00;99.90;;;;;;4849490;29;20195;-78
2023/06/22 05:29:37;;;;;;;15.63;5.90;;;24.00;99.90;;;;;;4844309;29;20200;-78
2023/06/22 05:32:05;;;;;;;11.52;5.82;;;24.10;99.90;;;;;;4866883;29;20162;-78
2023/06/22 05:34:32;;;;;;;13.32;6.15;;;24.10;99.90;;;;;;4864314;29;22568;-79
2023/06/22 05:37:00;;;;;;;11.73;6.07;;;24.10;99.90;;;;;;4869011;29;20060;-78
2023/06/22 05:39:27;;;;;;;13.15;6.45;;;24.30;99.90;;;;;;4865956;29;20058;-78
2023/06/22 05:41:54;;;;;;;10.63;6.22;;;24.30;99.90;;;;;;4847426;29;20405;-75
2023/06/22 05:44:21;;;;;;;14.35;6.50;;;24.30;99.90;;;;;;4846820;29;20045;-75
2023/06/22 05:46:48;;;;;;;11.80;6.38;;;24.40;99.90;;;;;;4873107;29;20773;-75
2023/06/22 05:49:16;;;;;;;13.43;6.22;;;24.50;99.90;;;;;;4856745;29;20377;-75
2023/06/22 05:51:43;;;;;;;11.32;6.53;;;24.70;99.90;;;;;;4852831;29;20056;-75
2023/06/22 05:54:13;;;;;;;17.40;6.35;;;24.80;99.90;;;;;;4859994;29;20048;-76
2023/06/22 05:56:40;;;;;;;15.40;7.68;;;25.00;99.90;;;;;;4860314;29;20725;-75
2023/06/22 05:59:07;;;;;;;19.17;8.02;;;25.00;99.90;;;;;;4870122;29;20048;-76
2023/06/22 06:01:35;;;;;;;8.57;5.30;;;25.10;99.90;;;;;;4860003;29;20451;-76
2023/06/22 06:04:03;;;;;;;10.60;6.32;;;25.00;99.90;;;;;;4860827;29;20055;-75
2023/06/22 06:06:31;;;;;;;12.50;4.55;;;25.30;99.90;;;;;;4859824;29;20056;-76
2023/06/22 06:08:59;;;;;;;8.50;4.00;;;25.40;99.90;;;;;;4876154;29;20055;-75
2023/06/22 06:11:27;;;;;;;7.45;3.42;;;25.60;99.90;;;;;;4877400;29;20044;-76
2023/06/22 06:13:54;;;;;;;10.55;3.53;;;25.60;99.90;;;;;;4861653;29;21671;-76
2023/06/22 06:16:22;;;;;;;6.40;3.03;;;25.60;99.90;;;;;;4834959;29;20532;-76
2023/06/22 06:18:50;;;;;;;10.85;4.32;;;25.70;99.90;;;;;;4847870;29;20625;-76
2023/06/22 06:21:17;;;;;;;7.35;3.63;;;25.80;99.90;;;;;;4872231;29;20048;-76
2023/06/22 06:23:44;;;;;;;7.50;4.00;;;25.80;99.90;;;;;;4879164;29;20542;-76
2023/06/22 06:26:12;;;;;;;8.90;3.45;;;25.90;99.90;;;;;;4852660;29;20064;-76
2023/06/22 06:28:40;;;;;;;9.20;3.35;;;26.10;99.90;;;;;;4877413;29;20209;-77
2023/06/22 06:31:08;;;;;;;5.43;3.40;;;26.10;99.30;;;;;;4859254;29;20095;-76
2023/06/22 06:33:36;;;;;;;7.38;3.10;;;26.10;97.70;;;;;;4865712;29;20527;-76
2023/06/22 06:36:03;;;;;;;6.57;3.03;;;26.20;98.00;;;;;;4878473;29;20401;-76
2023/06/22 06:38:31;;;;;;;9.68;3.50;;;26.40;99.90;;;;;;4866252;29;20942;-76
2023/06/22 06:40:58;;;;;;;8.75;4.40;;;26.50;98.70;;;;;;4857455;29;20044;-76
2023/06/22 06:43:26;;;;;;;8.43;4.78;;;26.60;98.80;;;;;;4863976;29;20052;-76
2023/06/22 06:45:53;;;;;;;10.93;4.20;;;26.60;97.50;;;;;;4874594;29;20103;-76
2023/06/22 06:48:20;;;;;;;7.15;3.00;;;26.80;97.50;;;;;;4838723;29;20052;-76
2023/06/22 06:50:47;;;;;;;9.73;3.90;;;26.90;96.80;;;;;;4856081;29;22508;-76
2023/06/22 06:53:14;;;;;;;7.13;3.80;;;26.90;96.20;;;;;;4857563;29;20048;-77
2023/06/22 06:55:41;;;;;;;9.13;3.08;;;26.90;93.90;;;;;;4866707;29;20492;-77
2023/06/22 06:58:09;;;;;;;11.18;4.53;;;27.10;94.90;;;;;;4866902;29;20053;-76
2023/06/22 07:00:37;;;;;;;6.40;3.40;;;27.20;94.10;;;;;;4851268;29;20555;-76
2023/06/22 07:03:04;;;;;;;7.00;3.08;;;27.30;94.60;;;;;;4856463;29;20044;-76
2023/06/22 07:05:31;;;;;;;8.48;3.92;;;27.50;93.30;;;;;;4863547;29;20716;-77
2023/06/22 07:07:59;;;;;;;8.45;2.88;;;27.40;93.80;;;;;;4837337;29;20047;-76
2023/06/22 07:10:26;;;;;;;8.90;3.35;;;27.40;93.60;;;;;;4866590;29;20045;-77
2023/06/22 07:12:54;;;;;;;6.63;2.53;;;27.50;92.30;;;;;;4869400;29;20056;-76
2023/06/22 07:15:21;;;;;;;8.05;3.55;;;27.40;92.00;;;;;;4879009;29;20052;-76
2023/06/22 07:17:48;;;;;;;8.73;2.92;;;27.60;90.60;;;;;;4851244;29;20409;-77
2023/06/22 07:20:16;;;;;;;10.32;3.22;;;27.50;90.60;;;;;;4862985;29;20836;-77
2023/06/22 07:22:47;;;;;;;7.50;3.13;;;27.50;90.50;;;;;;4852262;29;20056;-76
2023/06/22 07:25:14;;;;;;;5.07;2.60;;;27.60;90.50;;;;;;4863414;29;20428;-77
2023/06/22 07:27:58;;;;;;;5.32;2.70;;;27.70;91.30;;;;;;4839776;29;20162;-77
2023/06/22 07:30:25;;;;;;;10.60;2.78;;;27.90;89.90;;;;;;4871927;29;20439;-76
2023/06/22 07:32:53;;;;;;;6.38;2.90;;;28.00;90.30;;;;;;4852751;29;20049;-77
2023/06/22 07:35:21;;;;;;;7.25;2.70;;;28.10;90.10;;;;;;4856842;29;20583;-76
2023/06/22 07:37:48;;;;;;;8.27;2.97;;;28.20;89.30;;;;;;4846220;29;22715;-77
2023/06/22 07:40:15;;;;;;;7.13;2.25;;;28.40;89.90;;;;;;4863946;29;20080;-76
2023/06/22 07:42:42;;;;;;;8.13;3.00;;;28.40;88.10;;;;;;4865940;29;22675;-78
2023/06/22 07:45:10;;;;;;;6.00;2.92;;;28.50;88.90;;;;;;4859432;29;20055;-78
2023/06/22 07:47:37;;;;;;;5.80;2.92;;;28.50;86.60;;;;;;4857866;29;20056;-78
2023/06/22 07:50:06;;;;;;;7.90;3.15;;;28.40;86.90;;;;;;4850113;29;20057;-78
2023/06/22 07:52:33;;;;;;;9.70;3.83;;;28.50;87.90;;;;;;4861608;29;20060;-78
2023/06/22 07:55:00;;;;;;;8.77;3.80;;;28.50;82.60;;;;;;4844087;29;20642;-78
2023/06/22 07:57:33;;;;;;;5.25;2.75;;;28.60;84.60;;;;;;4840919;29;20053;-78
2023/06/22 08:00:00;;;;;;;9.70;4.10;;;28.50;82.70;;;;;;4854406;29;20704;-80
2023/06/22 08:02:38;;;;;;;4.35;2.42;;;28.60;84.60;;;;;;4867783;29;20717;-79
2023/06/22 08:05:08;;;;;;;7.90;2.80;;;28.70;84.90;;;;;;4862249;29;20174;-79
2023/06/22 08:07:48;;;;;;;7.75;3.35;;;28.70;88.10;;;;;;4865615;29;20067;-78
2023/06/22 08:10:15;;;;;;;7.32;3.70;;;28.80;86.50;;;;;;4852232;29;20516;-78
2023/06/22 08:12:42;;;;;;;7.45;3.05;;;28.80;86.00;;;;;;4867339;29;20075;-79
2023/06/22 08:15:10;;;;;;;6.97;3.33;;;28.80;81.80;;;;;;4866924;29;20048;-78
2023/06/22 08:17:38;;;;;;;10.63;3.08;;;28.70;80.30;;;;;;4857095;29;20496;-78
2023/06/22 08:20:11;;;;;;;6.05;3.05;;;28.80;83.00;;;;;;4866303;29;20059;-78
2023/06/22 08:22:39;;;;;;;5.78;2.80;;;29.00;83.90;;;;;;4844969;29;20057;-79
2023/06/22 08:25:09;;;;;;;5.85;3.08;;;29.10;84.00;;;;;;4853017;29;20143;-80
2023/06/22 08:27:36;;;;;;;6.97;3.03;;;29.10;82.60;;;;;;4859763;29;20485;-79
2023/06/22 08:30:04;;;;;;;7.13;3.45;;;29.10;83.70;;;;;;4866230;29;20262;-79
2023/06/22 08:32:32;;;;;;;5.70;3.20;;;29.10;83.50;;;;;;4883922;29;20048;-79
2023/06/22 08:35:00;;;;;;;5.40;3.38;;;29.20;84.30;;;;;;4874546;29;20188;-79
2023/06/22 08:37:31;;;;;;;6.10;3.03;;;29.20;81.40;;;;;;4854830;29;20048;-79
2023/06/22 08:40:10;;;;;;;6.13;3.88;;;29.30;83.30;;;;;;4860655;29;20060;-78
2023/06/22 08:42:40;;;;;;;7.03;3.95;;;29.40;83.80;;;;;;4869475;29;21476;-77
2023/06/22 08:45:08;;;;;;;9.75;3.97;;;29.30;83.20;;;;;;4871759;29;20063;-77
2023/06/22 08:47:36;;;;;;;7.03;3.80;;;29.30;82.30;;;;;;4867870;29;20090;-77
2023/06/22 08:50:04;;;;;;;5.85;3.70;;;29.40;84.80;;;;;;4870817;29;20052;-77
2023/06/22 08:52:31;;;;;;;9.63;4.22;;;29.40;83.80;;;;;;4859360;29;20148;-77
2023/06/22 08:54:58;;;;;;;10.15;4.53;;;29.40;82.50;;;;;;4871070;29;20060;-77
2023/06/22 08:57:30;;;;;;;7.38;3.85;;;29.40;81.90;;;;;;4853813;29;20132;-79
2023/06/22 09:00:00;;;;;;;6.80;4.13;;;29.30;82.10;;;;;;4863357;29;20448;-77
2023/06/22 09:02:31;;;;;;;10.30;4.22;;;29.50;82.90;;;;;;4863025;29;20127;-77
2023/06/22 09:04:59;;;;;;;;;;;29.50;83.90;;;;;;4844751;29;20072;-77
2023/06/22 09:07:26;;;;;;;6.82;4.50;;;29.60;83.20;;;;;;4870524;29;20477;-76
2023/06/22 09:09:54;;;;;;;8.13;4.75;;;29.60;82.60;;;;;;4867810;29;20404;-77
2023/06/22 09:12:25;;;;;;;7.50;4.50;;;29.60;83.10;;;;;;4874572;29;20061;-77
2023/06/22 09:14:53;;;;;;;7.32;4.30;;;29.50;83.70;;;;;;4841997;29;20056;-77
2023/06/22 09:17:21;;;;;;;4.55;3.78;;;29.60;82.80;;;;;;4857008;29;20075;-77
2023/06/22 09:19:49;;;;;;;9.07;4.95;;;29.60;82.30;;;;;;4848523;29;20061;-78
2023/06/22 09:22:16;;;;;;;5.85;4.45;;;29.70;83.00;;;;;;4873917;29;20048;-77
2023/06/22 09:24:43;;;;;;;12.65;5.70;;;29.60;82.40;;;;;;4872060;29;20439;-77
2023/06/22 09:27:10;;;;;;;8.57;5.00;;;29.70;83.30;;;;;;4873181;29;20041;-78
2023/06/22 09:29:38;;;;;;;10.23;4.63;;;29.70;82.10;;;;;;4867908;29;20049;-76
2023/06/22 09:32:05;;;;;;;5.82;5.05;;;29.80;82.80;;;;;;4866035;29;20052;-76
2023/06/22 09:34:32;;;;;;;7.15;5.45;;;29.80;79.60;;;;;;4830743;29;20087;-78
2023/06/22 09:37:00;;;;;;;7.05;5.03;;;29.80;81.00;;;;;;4858572;29;20052;-77
2023/06/22 09:39:27;;;;;;;9.95;5.47;;;29.80;80.30;;;;;;4871825;29;20089;-78
2023/06/22 09:41:55;;;;;;;6.07;4.53;;;29.80;81.30;;;;;;4851607;29;20136;-77
2023/06/22 09:44:22;;;;;;;7.47;5.63;;;29.80;80.50;;;;;;4868230;29;20801;-78
2023/06/22 09:46:49;;;;;;;7.50;5.57;;;29.70;78.20;;;;;;4858893;29;20051;-77
2023/06/22 09:49:16;;;;;;;8.35;5.70;;;29.70;80.90;;;;;;4842338;29;20054;-77
2023/06/22 09:51:44;;;;;;;5.65;5.07;;;29.70;82.10;;;;;;4863568;29;20139;-74
2023/06/22 09:54:11;;;;;;;7.47;5.88;;;29.70;81.70;;;;;;4844644;29;20127;-75
2023/06/22 09:56:38;;;;;;;6.43;4.57;;;29.80;82.40;;;;;;4878505;29;20049;-78
2023/06/22 09:59:05;;;;;;;7.93;5.25;;;29.90;83.30;;;;;;4855391;29;20067;-78
2023/06/22 10:01:44;;;;;;;8.57;5.05;;;29.90;80.30;;;;;;4869133;29;20501;-77
2023/06/22 10:04:12;;;;;;;5.85;4.75;;;30.00;80.50;;;;;;4856762;29;20277;-77
2023/06/22 10:06:40;;;;;;;8.93;4.75;;;29.90;80.10;;;;;;4888292;29;20134;-77
2023/06/22 10:09:08;;;;;;;6.40;4.68;;;29.80;80.40;;;;;;4846742;29;20059;-77
2023/06/22 10:11:36;;;;;;;6.95;5.50;;;29.80;79.60;;;;;;4855124;29;20652;-77
2023/06/22 10:14:04;;;;;;;9.57;5.57;;;29.80;80.40;;;;;;4868085;29;20143;-77
2023/06/22 10:16:32;;;;;;;5.38;4.53;;;29.80;83.20;;;;;;4885789;29;20511;-78
2023/06/22 10:18:59;;;;;;;7.03;4.70;;;29.90;83.50;;;;;;4879803;29;20144;-78
2023/06/22 10:21:28;;;;;;;8.23;4.95;;;29.90;80.40;;;;;;4862096;29;20582;-77
2023/06/22 10:23:55;;;;;;;7.05;5.85;;;29.90;80.60;;;;;;4882227;29;20056;-77
2023/06/22 10:26:23;;;;;;;7.70;5.72;;;29.80;80.50;;;;;;4866806;29;20686;-77
2023/06/22 10:28:50;;;;;;;7.78;5.60;;;29.90;82.60;;;;;;4859836;29;20052;-78
2023/06/22 10:31:27;;;;;;;5.63;4.90;;;30.00;80.70;;;;;;4838770;29;20056;-77
2023/06/22 10:33:55;;;;;;;8.10;5.30;;;29.90;79.10;;;;;;4838789;29;20044;-78
2023/06/22 10:36:22;;;;;;;7.53;5.68;;;30.00;80.20;;;;;;4884556;29;20055;-79
2023/06/22 10:38:49;;;;;;;6.28;5.43;;;29.90;78.90;;;;;;4862545;29;20697;-77
2023/06/22 10:41:17;;;;;;;7.18;5.35;;;29.90;78.70;;;;;;4883000;29;20863;-77
2023/06/22 10:43:44;;;;;;;7.25;5.68;;;29.90;80.40;;;;;;4862808;29;20051;-77
2023/06/22 10:46:11;;;;;;;7.72;5.05;;;30.00;79.80;;;;;;4846987;29;20080;-78
2023/06/22 10:48:38;;;;;;;8.95;5.07;;;30.00;79.00;;;;;;4860173;29;20059;-78
2023/06/22 10:51:05;;;;;;;8.45;5.53;;;29.90;79.30;;;;;;4836798;29;20052;-78
2023/06/22 10:53:32;;;;;;;7.57;5.22;;;29.90;79.70;;;;;;4843922;29;20058;-77
2023/06/22 10:55:59;;;;;;;9.10;6.30;;;30.00;81.20;;;;;;4879636;29;20191;-77
2023/06/22 10:58:27;;;;;;;7.63;5.93;;;30.10;80.30;;;;;;4860794;29;20060;-78
2023/06/22 11:00:54;;;;;;;7.10;5.53;;;30.10;78.80;;;;;;4869152;29;20087;-79
2023/06/22 11:03:21;;;;;;;7.55;6.03;;;30.10;78.20;;;;;;4864230;29;20559;-77
2023/06/22 11:05:48;;;;;;;6.55;5.50;;;30.00;79.80;;;;;;4883635;29;20053;-78
2023/06/22 11:08:16;;;;;;;7.38;5.85;;;30.10;78.70;;;;;;4883751;29;20096;-78
2023/06/22 11:10:44;;;;;;;7.72;6.20;;;30.10;80.00;;;;;;4856934;29;20128;-77
2023/06/22 11:13:11;;;;;;;8.45;6.32;;;30.00;77.20;;;;;;4862874;29;20138;-78
2023/06/22 11:15:39;;;;;;;7.35;5.32;;;30.00;78.00;;;;;;4859917;29;20067;-79
2023/06/22 11:18:07;;;;;;;5.80;5.13;;;30.10;78.40;;;;;;4856813;29;20835;-77
2023/06/22 11:20:38;;;;;;;6.97;4.85;;;30.20;81.00;;;;;;4854684;29;20184;-79
2023/06/22 11:23:06;;;;;;;6.55;5.60;;;30.20;81.20;;;;;;4866395;29;20421;-78
2023/06/22 11:25:38;;;;;;;7.35;5.50;;;30.20;80.20;;;;;;4852215;29;20107;-78
2023/06/22 11:28:05;;;;;;;;;;;30.10;77.80;;;;;;4860916;29;20126;-80
2023/06/22 11:30:32;;;;;;;7.72;6.18;;;30.10;80.10;;;;;;4839567;29;19931;-77
2023/06/22 11:32:59;;;;;;;10.35;6.20;;;30.10;79.70;;;;;;4834522;29;20384;-78
2023/06/22 11:35:27;;;;;;;10.27;5.82;;;30.10;77.90;;;;;;4872644;29;20412;-78
2023/06/22 11:37:55;;;;;;;8.00;5.60;;;30.10;79.60;;;;;;4868575;29;20458;-78
2023/06/22 11:40:23;;;;;;;9.55;5.82;;;30.20;80.80;;;;;;4830285;29;20060;-80
2023/06/22 11:42:50;;;;;;;8.50;5.78;;;30.20;76.90;;;;;;4833530;29;20921;-78
2023/06/22 11:45:18;;;;;;;7.68;5.57;;;30.10;77.50;;;;;;4846550;29;20048;-77
2023/06/22 11:47:45;;;;;;;8.55;5.65;;;30.20;79.40;;;;;;4854895;29;20049;-78
2023/06/22 11:50:12;;;;;;;8.00;5.80;;;30.30;78.10;;;;;;4860191;29;20041;-78
2023/06/22 11:52:39;;;;;;;12.90;7.05;;;30.30;79.90;;;;;;4858963;29;20067;-78
2023/06/22 11:55:07;;;;;;;7.57;5.53;;;30.40;79.20;;;;;;4848593;29;20060;-77
2023/06/22 11:57:36;;;;;;;6.88;6.18;;;30.40;80.10;;;;;;4842586;29;20053;-78
2023/06/22 12:00:15;;;;;;;9.73;5.45;;;30.30;77.90;;;;;;4855070;29;20068;-77
2023/06/22 12:02:42;;;;;;;6.78;5.80;;;30.30;77.90;;;;;;4874312;29;20051;-78
2023/06/22 12:05:10;;;;;;;8.60;5.63;;;30.40;79.00;;;;;;4853869;29;20040;-78
2023/06/22 12:07:37;;;;;;;8.30;6.05;;;30.50;78.90;;;;;;4855407;29;20052;-78
2023/06/22 12:10:05;;;;;;;7.38;5.85;;;30.40;75.90;;;;;;4856096;29;20052;-78
2023/06/22 12:12:32;;;;;;;7.07;4.93;;;30.40;76.50;;;;;;4841174;29;20063;-78
2023/06/22 12:15:03;;;;;;;9.07;5.22;;;30.40;78.20;;;;;;4838737;29;20143;-78
2023/06/22 12:17:30;;;;;;;9.20;5.35;;;30.40;75.40;;;;;;4870617;29;20527;-80
2023/06/22 12:19:58;;;;;;;6.50;4.82;;;30.50;74.60;;;;;;4864434;29;20055;-78
2023/06/22 12:22:26;;;;;;;5.82;5.10;;;30.40;74.50;;;;;;4844790;29;20115;-78
2023/06/22 12:24:53;;;;;;;5.95;4.72;;;30.40;76.90;;;;;;4888120;29;20044;-77
2023/06/22 12:27:20;;;;;;;8.68;5.20;;;30.40;77.30;;;;;;4865857;29;20040;-78
2023/06/22 12:29:47;;;;;;;7.05;4.97;;;30.50;74.60;;;;;;4869509;29;20051;-77
2023/06/22 12:32:15;;;;;;;10.30;5.28;;;30.50;76.10;;;;;;4853559;29;20923;-77
2023/06/22 12:34:43;;;;;;;9.00;5.80;;;30.50;73.60;;;;;;4841955;29;20139;-78
2023/06/22 12:37:10;;;;;;;7.20;5.80;;;30.50;72.40;;;;;;4843754;29;20524;-77
2023/06/22 12:39:40;;;;;;;7.82;4.82;;;30.50;74.00;;;;;;4863608;29;20491;-78
2023/06/22 12:42:08;;;;;;;5.45;4.78;;;30.60;71.10;;;;;;4856863;29;20048;-77
2023/06/22 12:44:37;;;;;;;8.95;4.53;;;30.50;72.30;;;;;;4863194;29;20785;-78
2023/06/22 12:47:04;;;;;;;8.48;4.60;;;30.50;70.30;;;;;;4850638;29;20060;-77
2023/06/22 12:49:32;;;;;;;7.30;4.57;;;30.40;72.50;;;;;;4851613;29;20142;-78
2023/06/22 12:51:59;;;;;;;5.68;4.90;;;30.50;75.30;;;;;;4888581;29;20128;-78
2023/06/22 12:54:26;;;;;;;7.72;4.80;;;30.60;75.00;;;;;;4860884;29;20484;-78